createdAt,value
2019-01-26T00:00:48.594Z,87.27
2019-01-26T00:05:50.427Z,90.63
2019-01-26T00:10:52.197Z,100.30
2019-01-26T00:15:54.045Z,75.03
2019-01-26T00:20:55.873Z,76.23
2019-01-26T00:25:57.709Z,81.30
2019-01-26T00:30:59.784Z,79.33
2019-01-26T00:36:03.115Z,91.90
2019-01-26T00:41:05.623Z,94.20
2019-01-26T00:46:08.140Z,131.83
2019-01-26T00:51:17.267Z,88.17
2019-01-26T00:56:17.463Z,121.60
2019-01-26T01:01:19.681Z,84.47
2019-01-26T01:06:25.896Z,78.57
2019-01-26T01:11:26.066Z,70.20
2019-01-26T01:16:28.141Z,63.40
2019-01-26T01:21:30.340Z,74.80
2019-01-26T01:26:32.250Z,84.97
2019-01-26T01:31:34.439Z,80.93
2019-01-26T01:36:36.219Z,95.17
2019-01-26T01:41:40.592Z,106.13
2019-01-26T01:46:43.061Z,83.57
2019-01-26T01:51:44.974Z,90.07
2019-01-26T01:56:50.069Z,72.73
2019-01-26T02:01:51.928Z,114.80
2019-01-26T02:06:53.720Z,83.80
2019-01-26T02:11:56.858Z,116.03
2019-01-26T02:16:58.662Z,95.67
2019-01-26T02:22:00.490Z,112.60
2019-01-26T02:27:02.715Z,132.43
2019-01-26T02:32:05.457Z,64.70
2019-01-26T02:37:07.346Z,88.70
2019-01-26T02:42:10.330Z,64.40
2019-01-26T02:47:12.542Z,120.03
2019-01-26T02:52:14.513Z,150.37
2019-01-26T02:57:16.456Z,71.67
2019-01-26T03:02:18.788Z,67.13
2019-01-26T03:07:20.638Z,98.50
2019-01-26T03:12:23.047Z,96.73
2019-01-26T03:17:25.018Z,79.33
2019-01-26T03:22:26.808Z,101.77
2019-01-26T03:27:28.888Z,75.63
2019-01-26T03:32:30.694Z,69.30
2019-01-26T03:37:32.452Z,68.40
2019-01-26T03:42:34.557Z,65.80
2019-01-26T03:47:36.473Z,84.20
2019-01-26T03:52:38.202Z,70.13
2019-01-26T03:57:40.465Z,145.70
2019-01-26T04:02:42.193Z,86.33
2019-01-26T04:07:44.000Z,349.83
2019-01-26T04:12:45.807Z,277.97
2019-01-26T04:17:47.715Z,181.53
2019-01-26T04:22:49.940Z,139.93
2019-01-26T04:27:51.660Z,179.07
2019-01-26T04:32:53.433Z,250.83
2019-01-26T04:37:55.330Z,302.90
2019-01-26T04:42:57.128Z,245.27
2019-01-26T04:47:59.135Z,237.97
2019-01-26T04:53:01.465Z,259.67
2019-01-26T04:58:04.808Z,258.80
2019-01-26T05:03:06.900Z,238.63
2019-01-26T05:08:09.219Z,181.70
2019-01-26T05:13:11.711Z,215.33
2019-01-26T05:18:13.531Z,172.33
2019-01-26T05:23:15.385Z,151.87
2019-01-26T05:28:17.510Z,183.93
2019-01-26T05:33:19.351Z,109.33
2019-01-26T05:38:21.157Z,106.70
2019-01-26T05:43:23.367Z,125.53
2019-01-26T05:48:25.253Z,91.03
2019-01-26T05:53:27.361Z,85.17
2019-01-26T05:58:29.481Z,63.90
2019-01-26T06:03:31.348Z,59.03
2019-01-26T06:08:33.157Z,69.00
2019-01-26T06:13:35.143Z,72.47
2019-01-26T06:18:36.933Z,80.80
2019-01-26T06:23:38.946Z,58.33
2019-01-26T06:28:40.743Z,54.53
2019-01-26T06:33:42.899Z,63.23
2019-01-26T06:38:44.768Z,49.10
2019-01-26T06:43:46.561Z,74.57
2019-01-26T06:48:51.830Z,45.70
2019-01-26T06:53:53.547Z,39.27
2019-01-26T06:58:56.578Z,56.30
2019-01-26T07:03:58.840Z,42.33
2019-01-26T07:09:00.612Z,73.70
2019-01-26T07:14:02.498Z,37.13
2019-01-26T07:19:04.261Z,47.07
2019-01-26T07:24:06.099Z,35.87
2019-01-26T07:29:07.917Z,58.13
2019-01-26T07:34:09.672Z,37.00
2019-01-26T07:39:11.726Z,34.17
2019-01-26T07:44:13.954Z,44.33
2019-01-26T07:49:16.156Z,47.43
2019-01-26T07:54:21.660Z,34.13
2019-01-26T07:59:24.058Z,40.37
2019-01-26T08:04:26.262Z,61.03
2019-01-26T08:09:28.681Z,45.70
2019-01-26T08:14:32.318Z,34.73
2019-01-26T08:19:34.117Z,43.30
2019-01-26T08:24:36.234Z,45.40
2019-01-26T08:29:38.436Z,42.63
2019-01-26T08:34:40.234Z,36.67
2019-01-26T08:39:43.055Z,40.27
2019-01-26T08:44:45.265Z,37.17
2019-01-26T08:49:47.574Z,24.77
2019-01-26T08:54:49.271Z,45.47
2019-01-26T08:59:51.626Z,38.40
2019-01-26T09:04:55.228Z,18.07
2019-01-26T09:09:57.135Z,34.17
2019-01-26T09:14:59.302Z,41.67
2019-01-26T09:20:01.184Z,46.23
2019-01-26T09:25:05.621Z,33.03
2019-01-26T09:30:14.043Z,32.53
2019-01-26T09:35:16.193Z,33.27
2019-01-26T09:40:19.742Z,41.87
2019-01-26T09:45:21.941Z,26.93
2019-01-26T09:50:23.743Z,30.03
2019-01-26T09:55:25.454Z,26.30
2019-01-26T10:00:27.782Z,38.27
2019-01-26T10:05:30.999Z,46.50
2019-01-26T10:10:33.955Z,32.13
2019-01-26T10:15:37.631Z,32.33
2019-01-26T10:20:42.839Z,29.97
2019-01-26T10:25:48.835Z,43.80
2019-01-26T10:30:54.759Z,25.10
2019-01-26T10:36:10.677Z,44.47
2019-01-26T10:41:15.248Z,30.23
2019-01-26T10:46:17.070Z,31.80
2019-01-26T10:51:19.540Z,28.27
2019-01-26T10:56:21.906Z,34.93
2019-01-26T11:01:27.352Z,29.97
2019-01-26T11:06:29.480Z,32.90
2019-01-26T11:11:31.561Z,25.53
2019-01-26T11:16:33.667Z,42.43
2019-01-26T11:21:40.773Z,46.20
2019-01-26T11:26:49.284Z,43.30
2019-01-26T11:31:48.297Z,34.60
2019-01-26T11:36:49.994Z,28.70
2019-01-26T11:41:52.143Z,29.60
2019-01-26T11:46:53.992Z,46.57
2019-01-26T11:52:06.031Z,36.40
2019-01-26T11:57:09.588Z,44.30
2019-01-26T12:02:13.318Z,34.30
2019-01-26T12:12:26.931Z,26.77
2019-01-26T12:17:36.785Z,35.53
2019-01-26T12:22:56.836Z,35.77
2019-01-26T12:27:58.635Z,34.77
2019-01-26T12:33:00.415Z,29.83
2019-01-26T12:38:02.188Z,37.43
2019-01-26T12:43:03.961Z,33.67
2019-01-26T12:48:06.102Z,22.67
2019-01-26T12:53:07.871Z,16.70
2019-01-26T12:58:09.649Z,35.20
2019-01-26T13:03:12.486Z,35.03
2019-01-26T13:08:14.797Z,27.97
2019-01-26T13:13:18.641Z,27.67
2019-01-26T13:18:20.857Z,30.93
2019-01-26T13:23:22.799Z,26.53
2019-01-26T13:28:24.579Z,19.83
2019-01-26T13:33:26.486Z,10.63
2019-01-26T13:38:28.364Z,16.90
2019-01-26T13:43:30.111Z,9.07
2019-01-26T13:48:37.076Z,19.23
2019-01-26T13:53:39.171Z,20.53
2019-01-26T13:58:40.943Z,13.57
2019-01-26T14:03:44.790Z,11.30
2019-01-26T14:08:46.588Z,6.70
2019-01-26T14:13:48.596Z,12.27
2019-01-26T14:18:51.821Z,9.60
2019-01-26T14:23:53.620Z,9.40
2019-01-26T14:28:55.777Z,6.47
2019-01-26T14:33:57.893Z,10.90
2019-01-26T14:38:59.740Z,15.33
2019-01-26T14:44:02.258Z,14.00
2019-01-26T14:49:04.025Z,8.77
2019-01-26T14:54:05.821Z,14.10
2019-01-26T14:59:07.537Z,9.80
2019-01-26T15:04:09.361Z,7.80
2019-01-26T15:09:11.146Z,13.20
2019-01-26T15:14:12.970Z,14.17
2019-01-26T15:19:14.836Z,12.67
2019-01-26T15:24:16.657Z,11.23
2019-01-26T15:29:19.855Z,10.67
2019-01-26T15:34:21.732Z,11.87
2019-01-26T15:39:25.156Z,7.70
2019-01-26T15:44:27.028Z,8.70
2019-01-26T15:49:29.724Z,8.40
2019-01-26T15:54:31.603Z,8.17
2019-01-26T15:59:33.791Z,14.80
2019-01-26T16:04:35.986Z,5.50
2019-01-26T16:09:37.798Z,11.37
2019-01-26T16:14:39.637Z,15.77
2019-01-26T16:19:41.851Z,6.80
2019-01-26T16:24:43.901Z,9.20
2019-01-26T16:29:45.668Z,12.97
2019-01-26T16:34:47.445Z,10.70
2019-01-26T16:39:49.223Z,10.83
2019-01-26T16:44:51.047Z,8.60
2019-01-26T16:49:53.212Z,9.90
2019-01-26T16:54:55.722Z,12.83
2019-01-26T16:59:58.587Z,6.43
2019-01-26T17:05:01.389Z,10.10
2019-01-26T17:10:06.909Z,9.27
2019-01-26T17:15:10.167Z,8.20
2019-01-26T17:20:34.789Z,6.30
2019-01-26T17:25:33.632Z,8.40
2019-01-26T17:30:38.109Z,8.07
2019-01-26T17:35:39.895Z,8.60
2019-01-26T17:40:42.584Z,7.10
2019-01-26T17:45:44.412Z,9.47
2019-01-26T17:50:46.624Z,10.50
2019-01-26T17:55:48.430Z,18.43
2019-01-26T18:00:52.017Z,12.50
2019-01-26T18:05:53.853Z,11.57
2019-01-26T18:10:56.112Z,12.60
2019-01-26T18:15:57.989Z,11.10
2019-01-26T18:21:01.542Z,14.83
2019-01-26T18:26:03.965Z,7.83
2019-01-26T18:31:05.778Z,10.90
2019-01-26T18:36:08.775Z,9.33
2019-01-26T18:41:10.911Z,15.07
2019-01-26T18:46:12.807Z,5.50
2019-01-26T18:51:14.700Z,5.20
2019-01-26T18:56:16.491Z,6.40
2019-01-26T19:01:18.287Z,7.77
2019-01-26T19:06:22.933Z,13.07
2019-01-26T19:11:24.823Z,6.23
2019-01-26T19:16:27.023Z,6.57
2019-01-26T19:21:28.818Z,5.60
2019-01-26T19:26:30.557Z,10.07
2019-01-26T19:31:34.246Z,7.73
2019-01-26T19:36:36.868Z,7.00
2019-01-26T19:41:38.648Z,7.00
2019-01-26T19:46:40.440Z,6.70
2019-01-26T19:51:42.540Z,6.13
2019-01-26T19:56:44.591Z,7.20
2019-01-26T20:01:46.758Z,6.67
2019-01-26T20:06:48.969Z,6.40
2019-01-26T20:11:50.766Z,7.43
2019-01-26T20:16:52.641Z,12.53
2019-01-26T20:21:54.563Z,14.40
2019-01-26T20:26:56.627Z,6.50
2019-01-26T20:31:58.500Z,5.87
2019-01-26T20:37:00.398Z,6.07
2019-01-26T20:42:02.222Z,5.40
2019-01-26T20:47:03.987Z,5.93
2019-01-26T20:52:06.162Z,6.73
2019-01-26T20:57:08.038Z,5.67
2019-01-26T21:02:09.760Z,7.10
2019-01-26T21:07:13.933Z,7.07
2019-01-26T21:12:15.748Z,11.20
2019-01-26T21:17:17.957Z,8.20
2019-01-26T21:22:19.780Z,12.97
2019-01-26T21:27:21.577Z,14.83
2019-01-26T21:32:23.460Z,13.50
2019-01-26T21:37:25.337Z,15.30
2019-01-26T21:42:27.214Z,20.03
2019-01-26T21:47:29.009Z,12.70
2019-01-26T21:52:30.720Z,31.07
2019-01-26T21:57:32.820Z,23.67
2019-01-26T22:02:34.610Z,34.00
2019-01-26T22:07:38.807Z,30.50
2019-01-26T22:12:41.649Z,26.10
2019-01-26T22:17:43.833Z,33.13
2019-01-26T22:22:46.502Z,16.27
2019-01-26T22:27:48.276Z,42.03
2019-01-26T22:32:50.493Z,38.13
2019-01-26T22:37:52.306Z,35.00
2019-01-26T22:42:54.146Z,27.37
2019-01-26T22:47:56.869Z,31.63
2019-01-26T22:52:58.722Z,40.67
2019-01-26T22:58:02.308Z,45.23
2019-01-26T23:03:04.936Z,35.60
2019-01-26T23:08:08.056Z,36.47
2019-01-26T23:13:15.982Z,38.30
2019-01-26T23:18:27.071Z,18.13
2019-01-26T23:24:01.296Z,35.30
2019-01-26T23:29:25.096Z,44.03
2019-01-26T23:34:26.964Z,25.23
2019-01-26T23:39:29.906Z,26.37
2019-01-26T23:44:32.471Z,27.93
2019-01-26T23:49:34.350Z,37.07
2019-01-26T23:54:36.547Z,30.40
2019-01-26T23:59:38.410Z,41.83
